Time;durP1;ratioP1;P1;durP2;ratioP2;P2;SDS_P1;SDS_P2;PMS_P1;PMS_P2;Temp;Humidity;BMP_temperature;BMP_pressure;BME280_temperature;BME280_humidity;BME280_pressure;Samples;Min_cycle;Max_cycle;Signal;HPM_P1;HPM_P2
2022/07/24 00:02:10;;;;;;;2.10;1.90;;;;;;;;;;4894817;29;20232;-75
2022/07/24 00:04:36;;;;;;;2.10;1.90;;;;;;;;;;4911222;29;20231;-75
2022/07/24 00:07:08;;;;;;;2.57;1.80;;;;;;;;;;4896202;29;20243;-74
2022/07/24 00:09:34;;;;;;;2.00;1.70;;;;;;;;;;4912356;29;20238;-75
2022/07/24 00:12:04;;;;;;;2.37;1.83;;;;;;;;;;4881549;29;20231;-75
2022/07/24 00:14:30;;;;;;;1.70;1.60;;;;;;;;;;4889373;29;20234;-75
2022/07/24 00:16:57;;;;;;;4.63;1.93;;;;;;;;;;4910545;29;20631;-74
2022/07/24 00:19:27;;;;;;;1.80;1.70;;;;;;;;;;4911347;29;20281;-75
2022/07/24 00:21:53;;;;;;;2.10;1.90;;;;;;;;;;4914265;29;20334;-75
2022/07/24 00:24:21;;;;;;;1.63;1.53;;;;;;;;;;4924565;29;20223;-75
2022/07/24 00:26:46;;;;;;;2.80;2.60;;;;;;;;;;4932849;29;20235;-75
2022/07/24 00:29:17;;;;;;;2.30;2.10;;;;;;;;;;4910376;29;20227;-75
2022/07/24 00:31:42;;;;;;;2.57;2.00;;;;;;;;;;4916298;29;20955;-75
2022/07/24 00:34:11;;;;;;;2.07;1.87;;;;;;;;;;4899818;29;20219;-74
2022/07/24 00:36:36;;;;;;;2.30;2.10;;;;;;;;;;4901674;29;20235;-75
2022/07/24 00:39:05;;;;;;;1.87;1.77;;;;;;;;;;4913182;29;20223;-75
2022/07/24 00:41:30;;;;;;;2.30;1.70;;;;;;;;;;4912260;29;20227;-75
2022/07/24 00:44:03;;;;;;;2.03;1.80;;;;;;;;;;4880708;29;20254;-75
2022/07/24 00:46:31;;;;;;;1.97;1.87;;;;;;;;;;4901068;29;20267;-74
2022/07/24 00:49:04;;;;;;;1.63;1.53;;;;;;;;;;4859935;29;20295;-74
2022/07/24 00:51:29;;;;;;;2.00;1.90;;;;;;;;;;4883330;29;20224;-75
2022/07/24 00:53:57;;;;;;;1.80;1.70;;;;;;;;;;4900624;29;20273;-74
2022/07/24 00:56:23;;;;;;;2.23;2.00;;;;;;;;;;4898987;29;20235;-76
2022/07/24 00:58:50;;;;;;;2.43;2.00;;;;;;;;;;4899706;29;20243;-75
2022/07/24 01:01:19;;;;;;;2.67;2.13;;;;;;;;;;4875757;29;20940;-75
2022/07/24 01:03:49;;;;;;;2.23;2.13;;;;;;;;;;4899939;29;20230;-74
2022/07/24 01:06:19;;;;;;;2.30;2.07;;;;;;;;;;4901545;29;20238;-75
2022/07/24 01:08:48;;;;;;;2.50;2.00;;;;;;;;;;4918057;29;20219;-76
2022/07/24 01:11:16;;;;;;;1.97;1.87;;;;;;;;;;4899358;29;20216;-75
2022/07/24 01:13:42;;;;;;;1.80;1.70;;;;;;;;;;4898806;29;20242;-75
2022/07/24 01:16:10;;;;;;;1.77;1.67;;;;;;;;;;4882974;29;20231;-75
2022/07/24 01:18:36;;;;;;;1.63;1.53;;;;;;;;;;4893436;29;20227;-75
2022/07/24 01:21:01;;;;;;;1.90;1.70;;;;;;;;;;4899384;29;20759;-75
2022/07/24 01:23:29;;;;;;;1.60;1.50;;;;;;;;;;4897018;29;20278;-75
2022/07/24 01:25:55;;;;;;;2.23;1.80;;;;;;;;;;4897011;29;20231;-75
2022/07/24 01:28:22;;;;;;;1.60;1.50;;;;;;;;;;4897368;29;20223;-75
2022/07/24 01:30:48;;;;;;;1.80;1.70;;;;;;;;;;4881547;29;20542;-75
2022/07/24 01:33:15;;;;;;;2.17;2.00;;;;;;;;;;4912522;29;20242;-75
2022/07/24 01:35:42;;;;;;;2.37;1.90;;;;;;;;;;4912982;29;20266;-75
2022/07/24 01:38:08;;;;;;;1.93;1.73;;;;;;;;;;4912862;29;20243;-75
2022/07/24 01:40:39;;;;;;;1.60;1.50;;;;;;;;;;4912388;29;20227;-75
2022/07/24 01:43:07;;;;;;;1.77;1.60;;;;;;;;;;4883098;29;20239;-75
2022/07/24 01:45:33;;;;;;;3.30;1.50;;;;;;;;;;4929582;29;20263;-75
2022/07/24 01:48:03;;;;;;;1.77;1.67;;;;;;;;;;4915548;29;20231;-75
2022/07/24 01:50:29;;;;;;;1.73;1.63;;;;;;;;;;4898578;29;20294;-75
2022/07/24 01:52:54;;;;;;;1.90;1.80;;;;;;;;;;4875403;29;20627;-75
2022/07/24 01:55:21;;;;;;;1.87;1.77;;;;;;;;;;4934457;28;20219;-75
2022/07/24 01:57:47;;;;;;;2.30;1.60;;;;;;;;;;4930315;29;20240;-75
2022/07/24 02:00:15;;;;;;;1.70;1.60;;;;;;;;;;4897823;29;20618;-75
2022/07/24 02:02:46;;;;;;;1.93;1.73;;;;;;;;;;4913990;29;20242;-75
2022/07/24 02:05:14;;;;;;;2.07;1.97;;;;;;;;;;4908924;29;20226;-75
2022/07/24 02:07:41;;;;;;;2.63;1.90;;;;;;;;;;4896339;29;20223;-75
2022/07/24 02:10:09;;;;;;;3.83;2.00;;;;;;;;;;4882897;29;20232;-75
2022/07/24 02:12:34;;;;;;;2.17;2.07;;;;;;;;;;4910164;29;20227;-75
2022/07/24 02:15:03;;;;;;;1.80;1.70;;;;;;;;;;4896718;29;20227;-75
2022/07/24 02:17:28;;;;;;;2.10;1.90;;;;;;;;;;4897453;29;20224;-76
2022/07/24 02:19:54;;;;;;;2.13;2.03;;;;;;;;;;4898756;29;20238;-74
2022/07/24 02:22:22;;;;;;;2.30;1.90;;;;;;;;;;4895778;29;20709;-75
2022/07/24 02:24:49;;;;;;;1.90;1.80;;;;;;;;;;4900017;29;20227;-75
2022/07/24 02:27:17;;;;;;;2.13;2.03;;;;;;;;;;4895667;29;20245;-75
2022/07/24 02:29:47;;;;;;;1.70;1.60;;;;;;;;;;4897390;29;20785;-75
2022/07/24 02:32:13;;;;;;;2.00;1.60;;;;;;;;;;4926361;29;20231;-76
2022/07/24 02:34:38;;;;;;;2.40;1.80;;;;;;;;;;4929468;29;20227;-76
2022/07/24 02:37:08;;;;;;;2.00;1.80;;;;;;;;;;4912414;29;20231;-75
2022/07/24 02:39:33;;;;;;;2.07;1.80;;;;;;;;;;4882862;29;20597;-75
2022/07/24 02:42:01;;;;;;;2.73;1.73;;;;;;;;;;4914112;29;20227;-75
2022/07/24 02:44:31;;;;;;;2.60;1.93;;;;;;;;;;4911847;29;20219;-75
2022/07/24 02:46:59;;;;;;;3.60;1.80;;;;;;;;;;4898359;29;20231;-75
2022/07/24 02:49:24;;;;;;;2.80;2.03;;;;;;;;;;4897580;29;20230;-75
2022/07/24 02:51:52;;;;;;;2.17;2.07;;;;;;;;;;4895839;29;21103;-74
2022/07/24 02:54:21;;;;;;;2.60;1.93;;;;;;;;;;4893658;29;20622;-75
2022/07/24 02:56:49;;;;;;;2.00;1.80;;;;;;;;;;4882657;29;20219;-74
2022/07/24 02:59:14;;;;;;;2.20;2.00;;;;;;;;;;4912834;29;20621;-75
2022/07/24 03:01:40;;;;;;;2.43;2.00;;;;;;;;;;4896040;29;20220;-75
2022/07/24 03:04:05;;;;;;;1.70;1.60;;;;;;;;;;4897976;29;20231;-75
2022/07/24 03:06:35;;;;;;;1.83;1.73;;;;;;;;;;4883410;29;20227;-74
2022/07/24 03:09:03;;;;;;;2.10;2.00;;;;;;;;;;4912840;29;20216;-75
2022/07/24 03:11:31;;;;;;;2.20;2.00;;;;;;;;;;4895837;29;20220;-75
2022/07/24 03:13:59;;;;;;;1.90;1.80;;;;;;;;;;4897111;29;20817;-74
2022/07/24 03:16:26;;;;;;;2.93;2.23;;;;;;;;;;4913093;29;20816;-75
2022/07/24 03:18:52;;;;;;;2.27;2.07;;;;;;;;;;4913160;29;20231;-75
2022/07/24 03:21:19;;;;;;;2.10;2.00;;;;;;;;;;4896863;29;20235;-74
2022/07/24 03:23:47;;;;;;;2.30;2.20;;;;;;;;;;4913074;29;20270;-75
2022/07/24 03:26:17;;;;;;;2.13;2.00;;;;;;;;;;4895138;29;20242;-75
2022/07/24 03:28:44;;;;;;;2.80;2.60;;;;;;;;;;4889932;29;20231;-74
2022/07/24 03:31:13;;;;;;;2.57;2.37;;;;;;;;;;4881151;29;20737;-74
2022/07/24 03:33:38;;;;;;;2.83;2.63;;;;;;;;;;4898262;29;20223;-75
2022/07/24 03:36:08;;;;;;;3.40;2.90;;;;;;;;;;4868914;29;20239;-75
2022/07/24 03:38:38;;;;;;;2.93;2.73;;;;;;;;;;4899242;29;20729;-76
2022/07/24 03:41:04;;;;;;;3.07;2.70;;;;;;;;;;4907661;29;20602;-75
2022/07/24 03:43:29;;;;;;;3.17;2.87;;;;;;;;;;4879619;29;20222;-75
2022/07/24 03:45:55;;;;;;;3.43;3.13;;;;;;;;;;4896477;29;20235;-75
2022/07/24 03:48:22;;;;;;;3.10;2.90;;;;;;;;;;4893027;29;20275;-76
2022/07/24 03:50:50;;;;;;;3.93;2.90;;;;;;;;;;4925066;29;20298;-75
2022/07/24 03:53:15;;;;;;;2.50;2.17;;;;;;;;;;4895555;29;20699;-76
2022/07/24 03:55:46;;;;;;;2.13;2.03;;;;;;;;;;4928179;29;20251;-74
2022/07/24 03:58:13;;;;;;;2.37;2.20;;;;;;;;;;4910293;29;20259;-75
2022/07/24 04:00:41;;;;;;;1.97;1.87;;;;;;;;;;4896689;29;20231;-75
2022/07/24 04:03:09;;;;;;;2.20;2.10;;;;;;;;;;4907802;29;20719;-75
2022/07/24 04:05:34;;;;;;;3.00;2.70;;;;;;;;;;4896419;29;20234;-75
2022/07/24 04:08:00;;;;;;;2.40;2.20;;;;;;;;;;4911845;29;20223;-75
2022/07/24 04:10:28;;;;;;;2.17;2.07;;;;;;;;;;4911771;29;20216;-75
2022/07/24 04:12:55;;;;;;;2.70;2.50;;;;;;;;;;4859586;29;20235;-75
2022/07/24 04:15:25;;;;;;;2.70;2.50;;;;;;;;;;4896499;29;20294;-76
2022/07/24 04:17:53;;;;;;;2.73;2.53;;;;;;;;;;4882964;29;20282;-75
2022/07/24 04:20:21;;;;;;;2.70;2.50;;;;;;;;;;4912397;29;20239;-75
2022/07/24 04:22:49;;;;;;;2.73;2.53;;;;;;;;;;4888961;29;20230;-75
2022/07/24 04:25:15;;;;;;;2.77;2.57;;;;;;;;;;4895385;29;20224;-76
2022/07/24 04:27:40;;;;;;;2.63;2.43;;;;;;;;;;4882167;29;20234;-77
2022/07/24 04:30:17;;;;;;;3.10;2.80;;;;;;;;;;4898368;29;20219;-75
2022/07/24 04:32:42;;;;;;;2.90;2.70;;;;;;;;;;4899636;29;20219;-75
2022/07/24 04:35:10;;;;;;;2.97;2.73;;;;;;;;;;4905655;29;20269;-75
2022/07/24 04:37:37;;;;;;;3.10;2.90;;;;;;;;;;4927956;29;20232;-75
2022/07/24 04:40:02;;;;;;;4.10;3.70;;;;;;;;;;4896328;29;20272;-76
2022/07/24 04:42:28;;;;;;;3.13;2.93;;;;;;;;;;4906612;29;20722;-75
2022/07/24 04:44:53;;;;;;;3.40;3.10;;;;;;;;;;4892904;29;20811;-75
2022/07/24 04:47:21;;;;;;;6.27;3.23;;;;;;;;;;4925203;29;20717;-76
2022/07/24 04:49:46;;;;;;;3.17;2.97;;;;;;;;;;4925355;29;20334;-76
2022/07/24 04:52:12;;;;;;;3.63;3.30;;;;;;;;;;4910687;29;20559;-75
2022/07/24 04:54:42;;;;;;;3.17;2.97;;;;;;;;;;4911388;29;20235;-75
2022/07/24 04:57:10;;;;;;;3.23;2.97;;;;;;;;;;4912476;29;20254;-75
2022/07/24 04:59:37;;;;;;;3.60;3.30;;;;;;;;;;4912642;29;20219;-76
2022/07/24 05:02:05;;;;;;;3.60;3.30;;;;;;;;;;4925837;29;20250;-76
2022/07/24 05:04:35;;;;;;;3.13;2.87;;;;;;;;;;4897124;29;20267;-76
2022/07/24 05:07:06;;;;;;;3.60;2.90;;;;;;;;;;4890780;29;20275;-76
2022/07/24 05:09:38;;;;;;;3.80;2.87;;;;;;;;;;4913762;29;20685;-76
2022/07/24 05:12:07;;;;;;;3.70;3.20;;;;;;;;;;4899460;29;20219;-76
2022/07/24 05:14:34;;;;;;;3.10;2.80;;;;;;;;;;4887020;29;20773;-75
2022/07/24 05:17:02;;;;;;;4.20;3.03;;;;;;;;;;4926472;29;20244;-75
2022/07/24 05:19:35;;;;;;;2.75;2.55;;;;;;;;;;4913615;29;20299;-75
2022/07/24 05:22:00;;;;;;;4.93;2.88;;;;;;;;;;4898871;29;20232;-76
2022/07/24 05:24:28;;;;;;;3.03;2.83;;;;;;;;;;4913641;29;20695;-76
2022/07/24 05:26:56;;;;;;;3.83;2.83;;;;;;;;;;4884905;29;20251;-76
2022/07/24 05:29:25;;;;;;;2.83;2.57;;;;;;;;;;4896804;29;20760;-75
2022/07/24 05:31:51;;;;;;;3.58;2.60;;;;;;;;;;4909686;29;20266;-75
2022/07/24 05:34:17;;;;;;;2.30;2.10;;;;;;;;;;4881684;29;20715;-75
2022/07/24 05:36:45;;;;;;;2.65;2.33;;;;;;;;;;4901988;29;20239;-75
2022/07/24 05:39:10;;;;;;;2.67;2.47;;;;;;;;;;4912821;29;20222;-76
2022/07/24 05:41:38;;;;;;;2.30;2.10;;;;;;;;;;4911728;29;20701;-75
2022/07/24 05:44:06;;;;;;;2.45;2.08;;;;;;;;;;4882263;29;20235;-75
2022/07/24 05:46:36;;;;;;;2.55;2.28;;;;;;;;;;4900242;29;20251;-76
2022/07/24 05:49:03;;;;;;;2.08;1.98;;;;;;;;;;4899768;29;20536;-75
2022/07/24 05:51:32;;;;;;;2.05;1.88;;;;;;;;;;4912276;29;20302;-75
2022/07/24 05:54:00;;;;;;;1.92;1.77;;;;;;;;;;4884023;29;20310;-76
2022/07/24 05:56:27;;;;;;;2.08;1.77;;;;;;;;;;4913878;29;20795;-76
2022/07/24 05:59:00;;;;;;;1.60;1.50;;;;;;;;;;4898839;29;20231;-76
2022/07/24 06:01:25;;;;;;;4.20;1.83;;;;;;;;;;4897290;29;20744;-77
2022/07/24 06:03:51;;;;;;;1.98;1.50;;;;;;;;;;4913452;29;20270;-76
2022/07/24 06:06:19;;;;;;;2.15;1.60;;;;;;;;;;4899128;29;20275;-76
2022/07/24 06:08:52;;;;;;;2.08;1.80;;;;;;;;;;4930481;29;20594;-76
2022/07/24 06:11:20;;;;;;;1.80;1.60;;;;;;;;;;4912423;29;20227;-76
2022/07/24 06:13:45;;;;;;;2.03;1.40;;;;;;;;;;4914367;29;20298;-76
2022/07/24 06:16:11;;;;;;;1.42;1.33;;;;;;;;;;4914299;29;20611;-76
2022/07/24 06:18:36;;;;;;;2.17;1.48;;;;;;;;;;4899050;29;20231;-76
2022/07/24 06:21:02;;;;;;;2.17;1.40;;;;;;;;;;4899309;29;20228;-76
2022/07/24 06:23:30;;;;;;;2.90;1.50;;;;;;;;;;4865108;29;20224;-76
2022/07/24 06:26:01;;;;;;;2.20;1.48;;;;;;;;;;4916751;29;20315;-76
2022/07/24 06:28:26;;;;;;;4.20;1.40;;;;;;;;;;4892997;29;20297;-76
2022/07/24 06:30:54;;;;;;;2.22;1.30;;;;;;;;;;4900179;29;20694;-76
2022/07/24 06:33:19;;;;;;;1.45;1.23;;;;;;;;;;4929422;29;20227;-76
2022/07/24 06:35:45;;;;;;;3.05;1.27;;;;;;;;;;4914310;29;20236;-76
2022/07/24 06:38:16;;;;;;;1.58;1.20;;;;;;;;;;4897803;29;20231;-76
2022/07/24 06:40:43;;;;;;;1.60;1.20;;;;;;;;;;4899574;29;20228;-76
2022/07/24 06:43:09;;;;;;;1.58;1.20;;;;;;;;;;4912551;29;20230;-76
2022/07/24 06:45:37;;;;;;;2.75;1.38;;;;;;;;;;4892601;29;20224;-75
2022/07/24 06:48:06;;;;;;;1.88;1.33;;;;;;;;;;4929824;29;20290;-76
2022/07/24 06:50:37;;;;;;;2.03;1.35;;;;;;;;;;4873929;29;20316;-76
2022/07/24 06:53:02;;;;;;;1.42;1.20;;;;;;;;;;4895640;29;20236;-76
2022/07/24 06:55:28;;;;;;;3.80;1.30;;;;;;;;;;4898247;29;20242;-76
2022/07/24 06:57:53;;;;;;;1.90;1.35;;;;;;;;;;4881515;29;20262;-77
2022/07/24 07:00:19;;;;;;;1.77;1.13;;;;;;;;;;4872532;29;20220;-77
2022/07/24 07:02:45;;;;;;;2.38;1.27;;;;;;;;;;4929008;29;20236;-77
2022/07/24 07:05:11;;;;;;;2.90;1.20;;;;;;;;;;4890400;29;20227;-76
2022/07/24 07:07:36;;;;;;;1.90;1.23;;;;;;;;;;4912246;29;20235;-76
2022/07/24 07:10:07;;;;;;;4.38;1.25;;;;;;;;;;4899928;29;20610;-76
2022/07/24 07:12:33;;;;;;;2.20;1.10;;;;;;;;;;4924015;29;20235;-76
2022/07/24 07:14:59;;;;;;;1.20;1.10;;;;;;;;;;4893936;29;20728;-77
2022/07/24 07:17:25;;;;;;;2.08;1.17;;;;;;;;;;4913454;29;20228;-76
2022/07/24 07:19:50;;;;;;;1.63;1.10;;;;;;;;;;4913777;29;20828;-77
2022/07/24 07:22:20;;;;;;;1.75;1.15;;;;;;;;;;4924956;29;20212;-77
2022/07/24 07:24:46;;;;;;;1.80;1.10;;;;;;;;;;4895427;29;20255;-79
2022/07/24 07:27:11;;;;;;;1.70;1.17;;;;;;;;;;4890651;29;20236;-79
2022/07/24 07:29:37;;;;;;;1.88;1.02;;;;;;;;;;4884882;29;20224;-77
2022/07/24 07:32:05;;;;;;;1.77;0.80;;;;;;;;;;4896967;29;20240;-77
2022/07/24 07:34:30;;;;;;;0.80;0.80;;;;;;;;;;4873074;29;20228;-76
2022/07/24 07:36:58;;;;;;;1.33;1.00;;;;;;;;;;4879897;29;20263;-75
2022/07/24 07:39:23;;;;;;;0.88;0.88;;;;;;;;;;4886201;23;20233;-85
2022/07/24 07:41:49;;;;;;;3.42;1.00;;;;;;;;;;4881888;29;20818;-82
2022/07/24 07:44:14;;;;;;;1.15;1.00;;;;;;;;;;4845997;29;20706;-83
2022/07/24 07:46:43;;;;;;;1.35;0.98;;;;;;;;;;4896685;29;20241;-81
2022/07/24 07:49:11;;;;;;;1.45;0.90;;;;;;;;;;4874702;29;20232;-81
2022/07/24 07:51:36;;;;;;;2.33;0.90;;;;;;;;;;4878242;29;20733;-81
2022/07/24 07:54:02;;;;;;;2.35;1.17;;;;;;;;;;4875420;29;20228;-85
2022/07/24 07:56:30;;;;;;;2.00;0.90;;;;;;;;;;4878665;29;20235;-81
2022/07/24 07:58:56;;;;;;;0.88;0.88;;;;;;;;;;4898918;29;20232;-82
2022/07/24 08:01:21;;;;;;;1.05;0.95;;;;;;;;;;4898025;29;20231;-83
2022/07/24 08:03:47;;;;;;;1.02;1.00;;;;;;;;;;4897486;29;20252;-83
2022/07/24 08:06:12;;;;;;;1.48;1.10;;;;;;;;;;4881703;29;20616;-82
2022/07/24 08:08:40;;;;;;;1.92;1.10;;;;;;;;;;4862426;29;20304;-84
2022/07/24 08:11:06;;;;;;;4.22;1.38;;;;;;;;;;4900609;29;20243;-81
2022/07/24 08:13:32;;;;;;;1.73;1.10;;;;;;;;;;4887139;29;20229;-85
2022/07/24 08:15:57;;;;;;;1.50;1.30;;;;;;;;;;4885952;29;20258;-81
2022/07/24 08:18:25;;;;;;;1.60;1.50;;;;;;;;;;4900564;29;20226;-84
2022/07/24 08:20:52;;;;;;;1.65;1.40;;;;;;;;;;4871858;29;20232;-83
2022/07/24 08:23:18;;;;;;;1.67;1.30;;;;;;;;;;4903194;29;20288;-82
2022/07/24 08:25:43;;;;;;;3.17;1.50;;;;;;;;;;4882071;29;20225;-82
2022/07/24 08:28:09;;;;;;;1.42;1.30;;;;;;;;;;4895644;29;20228;-83
2022/07/24 08:30:37;;;;;;;1.75;1.65;;;;;;;;;;4893339;29;20225;-85
2022/07/24 08:33:02;;;;;;;1.73;1.60;;;;;;;;;;4888279;29;20228;-81
2022/07/24 08:35:30;;;;;;;1.50;1.40;;;;;;;;;;4868582;29;20232;-82
2022/07/24 08:37:56;;;;;;;2.35;1.75;;;;;;;;;;4898089;29;20246;-84
2022/07/24 08:40:22;;;;;;;2.83;1.70;;;;;;;;;;4889209;29;20224;-78
2022/07/24 08:42:52;;;;;;;2.28;1.50;;;;;;;;;;4867488;29;20296;-84
2022/07/24 08:45:20;;;;;;;1.70;1.60;;;;;;;;;;4882541;29;20224;-81
2022/07/24 08:47:45;;;;;;;2.47;1.85;;;;;;;;;;4885992;29;20324;-82
2022/07/24 08:50:11;;;;;;;1.88;1.27;;;;;;;;;;4884719;29;20984;-81
2022/07/24 08:52:38;;;;;;;2.33;1.60;;;;;;;;;;4867835;29;20609;-79
2022/07/24 08:55:04;;;;;;;1.50;1.40;;;;;;;;;;4884303;29;20245;-82
2022/07/24 08:57:30;;;;;;;2.03;1.55;;;;;;;;;;4886205;29;20691;-84
2022/07/24 08:59:56;;;;;;;2.55;1.55;;;;;;;;;;4895642;29;20229;-80
2022/07/24 09:02:27;;;;;;;2.28;1.92;;;;;;;;;;4899051;29;20240;-82
2022/07/24 09:04:57;;;;;;;1.70;1.60;;;;;;;;;;4895920;29;20774;-83
2022/07/24 09:07:24;;;;;;;2.83;1.50;;;;;;;;;;4877473;29;20252;-80
2022/07/24 09:10:00;;;;;;;2.13;1.92;;;;;;;;;;4900762;29;20224;-79
2022/07/24 09:12:30;;;;;;;2.78;1.60;;;;;;;;;;4879523;29;20224;-77
2022/07/24 09:14:56;;;;;;;3.97;1.90;;;;;;;;;;4887584;29;20402;-79
2022/07/24 09:17:24;;;;;;;1.85;1.75;;;;;;;;;;4868190;29;20241;-82
2022/07/24 09:19:54;;;;;;;2.67;2.13;;;;;;;;;;4891037;29;20228;-78
2022/07/24 09:22:35;;;;;;;2.40;2.10;;;;;;;;;;4897002;29;20710;-78
2022/07/24 09:25:04;;;;;;;2.00;1.90;;;;;;;;;;4904872;29;20240;-77
2022/07/24 09:27:30;;;;;;;1.95;1.85;;;;;;;;;;4878915;29;21572;-78
2022/07/24 09:29:58;;;;;;;2.92;1.90;;;;;;;;;;4898387;29;20231;-78
2022/07/24 09:32:24;;;;;;;2.33;2.13;;;;;;;;;;4888052;29;20296;-79
2022/07/24 09:34:51;;;;;;;1.95;1.85;;;;;;;;;;4908968;29;20224;-77
2022/07/24 09:37:19;;;;;;;2.25;1.77;;;;;;;;;;4896696;29;20730;-79
2022/07/24 09:39:47;;;;;;;1.90;1.80;;;;;;;;;;4898029;29;20236;-78
2022/07/24 09:42:12;;;;;;;3.75;2.50;;;;;;;;;;4900544;29;20232;-79
2022/07/24 09:44:40;;;;;;;3.15;2.55;;;;;;;;;;4903620;29;20709;-78
2022/07/24 09:47:07;;;;;;;2.15;2.00;;;;;;;;;;4902602;29;20228;-81
2022/07/24 09:49:36;;;;;;;2.75;2.30;;;;;;;;;;4901630;29;20260;-77
2022/07/24 09:52:04;;;;;;;2.00;1.88;;;;;;;;;;4857572;29;20249;-78
2022/07/24 09:54:34;;;;;;;2.10;1.90;;;;;;;;;;4899604;29;20233;-79
2022/07/24 09:57:22;;;;;;;2.30;2.10;;;;;;;;;;4893073;29;20722;-81
2022/07/24 09:59:53;;;;;;;2.20;2.10;;;;;;;;;;4897477;29;20234;-81
2022/07/24 10:02:21;;;;;;;2.30;2.10;;;;;;;;;;4898521;29;20224;-79
2022/07/24 10:04:48;;;;;;;2.50;2.30;;;;;;;;;;4899977;29;20229;-79
2022/07/24 10:07:19;;;;;;;2.63;2.42;;;;;;;;;;4901816;29;20268;-79
2022/07/24 10:09:46;;;;;;;2.85;2.42;;;;;;;;;;4888064;29;20248;-77
2022/07/24 10:12:19;;;;;;;2.88;2.17;;;;;;;;;;4896926;29;20291;-79
2022/07/24 10:14:48;;;;;;;3.72;1.88;;;;;;;;;;4886956;29;20279;-79
2022/07/24 10:17:14;;;;;;;3.70;2.67;;;;;;;;;;4882903;29;20321;-78
2022/07/24 10:19:50;;;;;;;2.92;2.67;;;;;;;;;;4895748;29;20233;-81
2022/07/24 10:22:20;;;;;;;2.80;2.60;;;;;;;;;;4879841;29;20228;-78
2022/07/24 10:24:58;;;;;;;3.08;2.67;;;;;;;;;;4896753;29;20275;-80
2022/07/24 10:27:24;;;;;;;2.72;2.53;;;;;;;;;;4897244;29;20288;-80
2022/07/24 10:29:52;;;;;;;2.67;2.47;;;;;;;;;;4894159;29;20233;-77
2022/07/24 10:32:17;;;;;;;2.70;2.50;;;;;;;;;;4862890;29;20766;-80
2022/07/24 10:35:00;;;;;;;3.78;2.40;;;;;;;;;;4897058;29;20231;-80
2022/07/24 10:37:43;;;;;;;3.40;3.10;;;;;;;;;;4894743;29;20875;-79
2022/07/24 10:40:34;;;;;;;4.32;3.10;;;;;;;;;;4898488;29;20232;-78
2022/07/24 10:43:05;;;;;;;3.20;2.90;;;;;;;;;;4894803;29;20702;-79
2022/07/24 10:45:32;;;;;;;3.75;3.10;;;;;;;;;;4890563;29;20259;-79
2022/07/24 10:47:58;;;;;;;3.53;3.17;;;;;;;;;;4869564;29;20221;-78
2022/07/24 10:50:23;;;;;;;4.43;3.22;;;;;;;;;;4903481;29;20225;-82
2022/07/24 10:52:51;;;;;;;3.00;2.80;;;;;;;;;;4866099;29;20233;-79
2022/07/24 10:55:43;;;;;;;4.60;3.50;;;;;;;;;;4902921;29;20221;-78
2022/07/24 10:58:15;;;;;;;3.53;3.15;;;;;;;;;;4895783;29;20298;-79
2022/07/24 11:00:47;;;;;;;4.18;3.13;;;;;;;;;;4884681;29;20228;-80
2022/07/24 11:03:22;;;;;;;3.10;2.80;;;;;;;;;;4883128;29;20229;-81
2022/07/24 11:06:08;;;;;;;3.25;2.92;;;;;;;;;;4878621;29;20243;-79
2022/07/24 11:08:48;;;;;;;3.20;3.00;;;;;;;;;;4889687;29;20231;-80
2022/07/24 11:11:39;;;;;;;3.50;3.10;;;;;;;;;;4882992;29;20228;-80
2022/07/24 11:14:05;;;;;;;3.42;3.13;;;;;;;;;;4882348;29;20239;-78
2022/07/24 11:16:36;;;;;;;4.32;3.25;;;;;;;;;;4885688;29;20319;-79
2022/07/24 11:19:02;;;;;;;3.47;2.92;;;;;;;;;;4886196;29;20229;-78
2022/07/24 11:21:40;;;;;;;3.35;3.03;;;;;;;;;;4896669;29;20237;-78
2022/07/24 11:24:22;;;;;;;3.30;3.10;;;;;;;;;;4898707;29;20228;-79
2022/07/24 11:27:12;;;;;;;3.15;2.85;;;;;;;;;;4903050;29;20252;-79
2022/07/24 11:29:40;;;;;;;4.88;3.67;;;;;;;;;;4900609;29;20243;-81
2022/07/24 11:32:10;;;;;;;3.30;3.00;;;;;;;;;;4901136;29;20230;-79
2022/07/24 11:34:36;;;;;;;3.58;3.20;;;;;;;;;;4864178;29;20231;-81
2022/07/24 11:37:08;;;;;;;4.15;3.20;;;;;;;;;;4898174;29;20237;-78
2022/07/24 11:39:40;;;;;;;3.92;3.10;;;;;;;;;;4885939;29;20732;-79
2022/07/24 11:42:13;;;;;;;3.40;3.05;;;;;;;;;;4874728;29;20239;-78
2022/07/24 11:44:46;;;;;;;3.55;3.25;;;;;;;;;;4887677;29;20577;-77
2022/07/24 11:47:13;;;;;;;3.10;2.80;;;;;;;;;;4897028;29;20236;-78
2022/07/24 11:49:59;;;;;;;3.20;3.00;;;;;;;;;;4895852;29;20225;-80
2022/07/24 11:52:34;;;;;;;3.00;2.80;;;;;;;;;;4900773;29;20231;-78
2022/07/24 11:55:10;;;;;;;3.30;3.00;;;;;;;;;;4908157;23;20717;-73
2022/07/24 11:57:37;;;;;;;2.85;2.65;;;;;;;;;;4929483;29;20237;-73
2022/07/24 12:00:10;;;;;;;4.22;3.13;;;;;;;;;;4946860;28;20720;-75
2022/07/24 12:02:43;;;;;;;3.13;2.92;;;;;;;;;;4906086;29;20230;-72
2022/07/24 12:05:11;;;;;;;3.47;3.10;;;;;;;;;;4933485;28;20262;-72
2022/07/24 12:07:37;;;;;;;3.17;2.88;;;;;;;;;;4949235;28;20222;-74
2022/07/24 12:10:03;;;;;;;2.80;2.60;;;;;;;;;;4903844;28;20223;-73
2022/07/24 12:12:32;;;;;;;3.10;2.75;;;;;;;;;;4912456;29;20235;-74
2022/07/24 12:15:06;;;;;;;3.75;2.97;;;;;;;;;;4937514;28;20309;-77
2022/07/24 12:17:36;;;;;;;3.03;2.70;;;;;;;;;;4919658;29;20704;-78
2022/07/24 12:20:05;;;;;;;2.88;2.58;;;;;;;;;;4941315;28;20277;-75
2022/07/24 12:22:31;;;;;;;3.10;2.70;;;;;;;;;;4923839;29;20230;-74
2022/07/24 12:24:59;;;;;;;3.75;2.90;;;;;;;;;;4929273;29;20281;-74
2022/07/24 12:27:36;;;;;;;2.75;2.55;;;;;;;;;;4934267;28;20218;-74
2022/07/24 12:30:27;;;;;;;3.13;2.83;;;;;;;;;;4939958;28;20218;-74
2022/07/24 12:33:03;;;;;;;3.45;2.92;;;;;;;;;;4940263;29;20222;-74
2022/07/24 12:35:33;;;;;;;2.95;2.75;;;;;;;;;;4951956;28;20226;-74
2022/07/24 12:38:03;;;;;;;4.65;4.22;;;;;;;;;;4951478;28;20233;-75
2022/07/24 12:40:32;;;;;;;3.33;3.00;;;;;;;;;;4919857;29;20228;-75
2022/07/24 12:43:11;;;;;;;3.40;3.10;;;;;;;;;;4934452;28;20776;-75
2022/07/24 12:45:37;;;;;;;3.15;2.85;;;;;;;;;;4928356;29;20723;-73
2022/07/24 12:48:10;;;;;;;3.90;3.20;;;;;;;;;;4934667;29;20227;-75
2022/07/24 12:51:01;;;;;;;3.47;3.17;;;;;;;;;;4950563;29;20230;-74
2022/07/24 12:53:28;;;;;;;3.53;3.25;;;;;;;;;;4929832;28;20266;-74
2022/07/24 12:56:07;;;;;;;3.20;2.90;;;;;;;;;;4950007;28;20235;-72
2022/07/24 12:58:56;;;;;;;3.42;3.13;;;;;;;;;;4932212;29;20222;-74
2022/07/24 13:01:23;;;;;;;3.10;2.90;;;;;;;;;;4928619;28;20223;-73
2022/07/24 13:03:55;;;;;;;3.50;3.20;;;;;;;;;;4924510;29;20234;-75
2022/07/24 13:06:34;;;;;;;3.38;3.17;;;;;;;;;;4932417;28;20317;-74
2022/07/24 13:09:02;;;;;;;3.33;3.03;;;;;;;;;;4932785;29;20293;-75
2022/07/24 13:11:29;;;;;;;3.72;2.70;;;;;;;;;;4928629;29;20310;-74
2022/07/24 13:13:55;;;;;;;3.20;2.97;;;;;;;;;;4936428;28;20253;-75
2022/07/24 13:16:28;;;;;;;3.05;2.85;;;;;;;;;;4936786;28;20740;-73
2022/07/24 13:18:54;;;;;;;3.92;3.63;;;;;;;;;;4942289;28;20234;-74
2022/07/24 13:21:20;;;;;;;3.13;2.90;;;;;;;;;;4916031;28;20569;-74
2022/07/24 13:23:45;;;;;;;4.22;3.13;;;;;;;;;;4952241;28;20226;-75
2022/07/24 13:26:11;;;;;;;3.00;2.80;;;;;;;;;;4933423;28;20512;-73
2022/07/24 13:28:36;;;;;;;4.18;2.90;;;;;;;;;;4933124;29;20226;-74
2022/07/24 13:31:02;;;;;;;2.97;2.63;;;;;;;;;;4923159;29;20227;-75
2022/07/24 13:33:30;;;;;;;3.60;3.30;;;;;;;;;;4935007;28;20281;-72
2022/07/24 13:35:58;;;;;;;3.95;3.22;;;;;;;;;;4934542;29;20243;-76
2022/07/24 13:38:23;;;;;;;3.10;2.80;;;;;;;;;;4936557;28;20223;-79
2022/07/24 13:40:52;;;;;;;2.90;2.65;;;;;;;;;;4935265;28;20246;-75
2022/07/24 13:43:17;;;;;;;2.85;2.60;;;;;;;;;;4950718;28;20591;-71
2022/07/24 13:46:00;;;;;;;5.00;3.08;;;;;;;;;;4948696;28;20709;-78
2022/07/24 13:48:29;;;;;;;3.33;3.03;;;;;;;;;;4950132;28;20223;-76
2022/07/24 13:50:55;;;;;;;3.30;3.00;;;;;;;;;;4929116;29;20223;-73
2022/07/24 13:53:23;;;;;;;3.88;3.53;;;;;;;;;;4950746;28;20219;-75
2022/07/24 13:55:49;;;;;;;3.88;2.63;;;;;;;;;;4950521;28;20745;-75
2022/07/24 13:58:18;;;;;;;3.28;3.08;;;;;;;;;;4935623;28;20257;-75
2022/07/24 14:00:44;;;;;;;7.32;3.13;;;;;;;;;;4947578;28;20749;-75
2022/07/24 14:03:09;;;;;;;3.90;3.00;;;;;;;;;;4934377;28;20230;-74
2022/07/24 14:05:35;;;;;;;4.07;3.00;;;;;;;;;;4951173;28;20799;-75
2022/07/24 14:08:05;;;;;;;2.97;2.78;;;;;;;;;;4951201;28;20261;-74
2022/07/24 14:10:30;;;;;;;3.00;2.80;;;;;;;;;;4933191;28;20696;-77
2022/07/24 14:12:56;;;;;;;3.38;3.08;;;;;;;;;;4924524;29;20234;-74
2022/07/24 14:15:24;;;;;;;3.50;3.20;;;;;;;;;;4947112;28;20235;-75
2022/07/24 14:17:50;;;;;;;2.97;2.58;;;;;;;;;;4954595;28;20250;-74
2022/07/24 14:20:15;;;;;;;4.68;3.10;;;;;;;;;;4933900;28;20225;-75
2022/07/24 14:22:43;;;;;;;2.88;2.67;;;;;;;;;;4950129;28;20226;-75
2022/07/24 14:25:09;;;;;;;3.25;2.95;;;;;;;;;;4950122;28;20224;-72
2022/07/24 14:27:34;;;;;;;4.55;2.95;;;;;;;;;;4952044;28;20268;-74
2022/07/24 14:30:00;;;;;;;3.17;2.40;;;;;;;;;;4950118;28;20362;-74
2022/07/24 14:32:25;;;;;;;2.90;2.70;;;;;;;;;;4932833;28;20229;-74
2022/07/24 14:34:53;;;;;;;3.10;2.90;;;;;;;;;;4934883;29;21125;-75
2022/07/24 14:37:19;;;;;;;2.80;2.60;;;;;;;;;;4917301;28;20263;-75
2022/07/24 14:39:47;;;;;;;3.20;3.00;;;;;;;;;;4951035;28;20223;-75
2022/07/24 14:42:12;;;;;;;5.05;2.80;;;;;;;;;;4939156;28;20224;-74
2022/07/24 14:44:38;;;;;;;3.65;3.08;;;;;;;;;;4936063;28;20585;-75
2022/07/24 14:47:04;;;;;;;5.63;2.80;;;;;;;;;;4932058;28;21049;-75
2022/07/24 14:49:30;;;;;;;3.22;2.70;;;;;;;;;;4947280;28;20286;-74
2022/07/24 14:51:59;;;;;;;3.00;2.70;;;;;;;;;;4948273;28;20375;-75